createdAt,value
2022-11-01T00:01:33.688Z,1006.11
2022-11-01T00:02:33.239Z,1006.10
2022-11-01T00:04:37.223Z,1006.07
2022-11-01T00:05:37.239Z,1006.04
2022-11-01T00:07:41.731Z,1006.03
2022-11-01T00:08:41.264Z,1006.04
2022-11-01T00:10:45.278Z,1005.98
2022-11-01T00:11:45.290Z,1005.96
2022-11-01T00:13:38.771Z,1005.94
2022-11-01T00:14:38.255Z,1005.89
2022-11-01T00:16:42.273Z,1005.92
2022-11-01T00:17:42.283Z,1005.91
2022-11-01T00:19:46.779Z,1005.87
2022-11-01T00:20:46.308Z,1005.89
2022-11-01T00:22:50.327Z,1005.86
2022-11-01T00:23:50.346Z,1005.91
2022-11-01T00:25:54.837Z,1005.88
2022-11-01T00:26:54.374Z,1005.90
2022-11-01T00:28:58.396Z,1005.84
2022-11-01T00:29:58.400Z,1005.83
2022-11-01T00:32:02.896Z,1005.79
2022-11-01T00:33:02.429Z,1005.80
2022-11-01T00:35:06.442Z,1005.76
2022-11-01T00:36:06.458Z,1005.76
2022-11-01T00:38:10.953Z,1005.83
2022-11-01T00:39:10.494Z,1005.82
2022-11-01T00:41:14.507Z,1005.88
2022-11-01T00:42:14.516Z,1005.89
2022-11-01T00:44:19.014Z,1005.86
2022-11-01T00:45:18.545Z,1005.84
2022-11-01T00:47:22.584Z,1005.85
2022-11-01T00:48:22.596Z,1005.89
2022-11-01T00:50:27.073Z,1005.80
2022-11-01T00:51:26.613Z,1005.78
2022-11-01T00:53:19.566Z,1005.79
2022-11-01T00:54:19.580Z,1005.81
2022-11-01T00:56:24.082Z,1005.75
2022-11-01T00:57:23.613Z,1005.75
2022-11-01T00:59:27.624Z,1005.72
2022-11-01T01:00:27.641Z,1005.72
2022-11-01T01:02:32.228Z,1005.71
2022-11-01T01:03:31.675Z,1005.66
2022-11-01T01:05:35.700Z,1005.61
2022-11-01T01:06:35.716Z,1005.61
2022-11-01T01:08:40.217Z,1005.54
2022-11-01T01:09:39.752Z,1005.48
2022-11-01T01:11:43.768Z,1005.45
2022-11-01T01:12:43.784Z,1005.42
2022-11-01T01:14:48.277Z,1005.48
2022-11-01T01:15:47.840Z,1005.45
2022-11-01T01:17:51.827Z,1005.34
2022-11-01T01:18:51.845Z,1005.35
2022-11-01T01:20:56.337Z,1005.35
2022-11-01T01:21:55.878Z,1005.39
2022-11-01T01:23:59.890Z,1005.35
2022-11-01T01:24:59.901Z,1005.30
2022-11-01T01:27:04.401Z,1005.34
2022-11-01T01:28:04.310Z,1005.32
2022-11-01T01:30:07.950Z,1005.29
2022-11-01T01:31:07.967Z,1005.27
2022-11-01T01:33:01.515Z,1005.26
2022-11-01T01:34:00.926Z,1005.26
2022-11-01T01:36:04.984Z,1005.31
2022-11-01T01:37:04.963Z,1005.30
2022-11-01T01:39:09.457Z,1005.23
2022-11-01T01:40:09.000Z,1005.23
2022-11-01T01:42:13.005Z,1005.22
2022-11-01T01:43:13.025Z,1005.32
2022-11-01T01:45:17.517Z,1005.50
2022-11-01T01:46:17.060Z,1005.46
2022-11-01T01:48:21.074Z,1005.41
2022-11-01T01:49:21.088Z,1005.41
2022-11-01T01:51:25.582Z,1005.30
2022-11-01T01:52:25.126Z,1005.28
2022-11-01T01:54:29.147Z,1005.22
2022-11-01T01:55:29.163Z,1005.25
2022-11-01T01:57:33.659Z,1005.22
2022-11-01T01:58:33.203Z,1005.16
2022-11-01T02:00:37.211Z,1004.98
2022-11-01T02:01:37.334Z,1004.98
2022-11-01T02:03:30.208Z,1005.00
2022-11-01T02:04:30.184Z,1004.99
2022-11-01T02:07:23.333Z,1004.87
2022-11-01T02:09:30.938Z,1004.83
2022-11-01T02:10:27.370Z,1004.89
2022-11-01T02:12:31.389Z,1004.79
2022-11-01T02:13:31.417Z,1004.79
2022-11-01T02:15:35.900Z,1004.83
2022-11-01T02:16:35.439Z,1004.88
2022-11-01T02:18:39.443Z,1004.87
2022-11-01T02:19:39.457Z,1004.88
2022-11-01T02:21:43.960Z,1004.93
2022-11-01T02:24:47.521Z,1004.90
2022-11-01T02:25:47.528Z,1004.89
2022-11-01T02:27:52.019Z,1004.82
2022-11-01T02:28:51.553Z,1004.78
2022-11-01T02:30:55.577Z,1004.78
2022-11-01T02:31:55.593Z,1004.75
2022-11-01T02:34:00.100Z,1004.70
2022-11-01T02:34:59.631Z,1004.70
2022-11-01T02:37:04.141Z,1004.72
2022-11-01T02:38:04.158Z,1004.75
2022-11-01T02:39:04.252Z,1004.70
2022-11-01T02:40:04.228Z,1004.67
2022-11-01T02:41:04.231Z,1004.59
2022-11-01T02:42:04.263Z,1004.60
2022-11-01T02:43:04.436Z,1004.60
2022-11-01T02:44:04.301Z,1004.64
2022-11-01T02:45:04.328Z,1004.73
2022-11-01T02:46:04.355Z,1004.75
2022-11-01T02:47:04.380Z,1004.75
2022-11-01T02:48:04.401Z,1004.73
2022-11-01T02:49:04.441Z,1004.73
2022-11-01T02:50:04.453Z,1004.77
2022-11-01T02:51:04.475Z,1004.79
2022-11-01T02:52:04.508Z,1004.75
2022-11-01T02:53:04.809Z,1004.77
2022-11-01T02:54:04.551Z,1004.77
2022-11-01T02:55:04.574Z,1004.70
2022-11-01T02:56:04.601Z,1004.69
2022-11-01T02:57:04.624Z,1004.62
2022-11-01T02:58:04.862Z,1004.66
2022-11-01T02:59:04.674Z,1004.71
2022-11-01T03:00:04.699Z,1004.71
2022-11-01T03:01:04.758Z,1004.70
2022-11-01T03:02:04.864Z,1004.72
2022-11-01T03:03:04.777Z,1004.77
2022-11-01T03:04:04.803Z,1004.78
2022-11-01T03:05:04.828Z,1004.75
2022-11-01T03:06:04.858Z,1004.64
2022-11-01T03:07:04.887Z,1004.62
2022-11-01T03:08:05.245Z,1004.64
2022-11-01T03:09:04.932Z,1004.67
2022-11-01T03:10:05.010Z,1004.65
2022-11-01T03:11:04.976Z,1004.71
2022-11-01T03:12:04.998Z,1004.71
2022-11-01T03:13:05.407Z,1004.74
2022-11-01T03:14:05.048Z,1004.75
2022-11-01T03:15:05.075Z,1004.79
2022-11-01T03:16:05.102Z,1004.78
2022-11-01T03:17:05.129Z,1004.76
2022-11-01T03:18:05.163Z,1004.75
2022-11-01T03:19:05.182Z,1004.75
2022-11-01T03:20:05.203Z,1004.76
2022-11-01T03:21:05.228Z,1004.76
2022-11-01T03:22:05.252Z,1004.77
2022-11-01T03:23:05.595Z,1004.74
2022-11-01T03:24:05.299Z,1004.72
2022-11-01T03:25:05.338Z,1004.74
2022-11-01T03:26:05.356Z,1004.73
2022-11-01T03:27:05.373Z,1004.71
2022-11-01T03:28:05.399Z,1004.70
2022-11-01T03:29:05.427Z,1004.66
2022-11-01T03:30:05.457Z,1004.68
2022-11-01T03:31:05.478Z,1004.68
2022-11-01T03:32:05.497Z,1004.72
2022-11-01T03:33:05.667Z,1004.74
2022-11-01T03:34:05.578Z,1004.71
2022-11-01T03:35:05.574Z,1004.75
2022-11-01T03:36:09.063Z,1004.80
2022-11-01T03:37:05.624Z,1004.83
2022-11-01T03:38:05.646Z,1004.88
2022-11-01T03:39:05.676Z,1004.83
2022-11-01T03:40:05.701Z,1004.87
2022-11-01T03:41:05.723Z,1004.87
2022-11-01T03:42:05.748Z,1004.83
2022-11-01T03:43:05.774Z,1004.83
2022-11-01T03:44:05.802Z,1004.83
2022-11-01T03:45:05.824Z,1004.79
2022-11-01T03:46:05.845Z,1004.83
2022-11-01T03:47:05.875Z,1004.90
2022-11-01T03:48:06.046Z,1004.92
2022-11-01T03:49:05.930Z,1004.92
2022-11-01T03:50:05.951Z,1004.96
2022-11-01T03:51:05.971Z,1004.98
2022-11-01T03:52:06.000Z,1004.93
2022-11-01T03:53:06.023Z,1004.93
2022-11-01T03:54:06.054Z,1004.97
2022-11-01T03:55:06.073Z,1004.92
2022-11-01T03:56:06.112Z,1004.95
2022-11-01T03:57:06.123Z,1004.98
2022-11-01T03:58:06.305Z,1004.96
2022-11-01T03:59:06.175Z,1004.93
2022-11-01T04:00:06.196Z,1004.94
2022-11-01T04:01:06.344Z,1004.90
2022-11-01T04:02:06.455Z,1004.90
2022-11-01T04:03:06.641Z,1004.95
2022-11-01T04:04:06.296Z,1004.93
2022-11-01T04:05:06.323Z,1004.90
2022-11-01T04:06:06.353Z,1004.93
2022-11-01T04:07:06.393Z,1004.91
2022-11-01T04:08:06.401Z,1004.95
2022-11-01T04:09:06.426Z,1004.91
2022-11-01T04:10:06.451Z,1004.90
2022-11-01T04:11:06.476Z,1004.91
2022-11-01T04:12:06.500Z,1004.92
2022-11-01T04:13:06.660Z,1004.92
2022-11-01T04:14:06.553Z,1004.98
2022-11-01T04:15:06.576Z,1004.93
2022-11-01T04:16:06.602Z,1004.94
2022-11-01T04:17:06.629Z,1004.92
2022-11-01T04:18:06.650Z,1004.97
2022-11-01T04:19:06.676Z,1004.96
2022-11-01T04:20:06.705Z,1004.97
2022-11-01T04:21:06.723Z,1004.98
2022-11-01T04:22:06.760Z,1004.98
2022-11-01T04:23:06.777Z,1004.99
2022-11-01T04:24:06.800Z,1005.06
2022-11-01T04:25:06.824Z,1005.06
2022-11-01T04:26:06.852Z,1005.08
2022-11-01T04:27:06.876Z,1005.05
2022-11-01T04:28:06.899Z,1005.06
2022-11-01T04:29:06.925Z,1005.07
2022-11-01T04:30:06.952Z,1005.11
2022-11-01T04:31:07.007Z,1005.06
2022-11-01T04:32:06.998Z,1005.10
2022-11-01T04:33:07.022Z,1005.08
2022-11-01T04:34:07.051Z,1005.11
2022-11-01T04:36:07.099Z,1005.10
2022-11-01T04:37:07.130Z,1005.10
2022-11-01T04:38:07.156Z,1005.09
2022-11-01T04:39:07.175Z,1005.08
2022-11-01T04:40:07.199Z,1005.09
2022-11-01T04:41:07.226Z,1005.09
2022-11-01T04:42:07.247Z,1005.06
2022-11-01T04:43:07.275Z,1005.05
2022-11-01T04:44:07.298Z,1005.06
2022-11-01T04:45:07.366Z,1005.04
2022-11-01T04:46:07.347Z,1005.06
2022-11-01T04:47:07.373Z,1005.07
2022-11-01T04:48:07.398Z,1005.08
2022-11-01T04:49:07.422Z,1005.11
2022-11-01T04:50:07.450Z,1005.10
2022-11-01T04:51:07.476Z,1005.13
2022-11-01T04:52:07.500Z,1005.14
2022-11-01T04:53:07.521Z,1005.17
2022-11-01T04:54:07.554Z,1005.17
2022-11-01T04:55:07.574Z,1005.20
2022-11-01T04:56:07.602Z,1005.19
2022-11-01T04:57:07.626Z,1005.19
2022-11-01T04:58:07.648Z,1005.19
2022-11-01T04:59:07.672Z,1005.21
2022-11-01T05:00:07.696Z,1005.20
2022-11-01T05:01:07.833Z,1005.17
2022-11-01T05:02:07.776Z,1005.17
2022-11-01T05:03:07.773Z,1005.14
2022-11-01T05:04:07.799Z,1005.16
2022-11-01T05:05:07.826Z,1005.13
2022-11-01T05:06:07.856Z,1005.18
2022-11-01T05:07:07.872Z,1005.18
2022-11-01T05:08:07.898Z,1005.20
2022-11-01T05:09:07.924Z,1005.20
2022-11-01T05:10:07.951Z,1005.16
2022-11-01T05:11:07.973Z,1005.16
2022-11-01T05:12:08.001Z,1005.15
2022-11-01T05:13:08.030Z,1005.19
2022-11-01T05:14:08.060Z,1005.18
2022-11-01T05:15:08.077Z,1005.18
2022-11-01T05:16:19.863Z,1005.19
2022-11-01T05:17:08.131Z,1005.21
2022-11-01T05:18:08.149Z,1005.15
2022-11-01T05:19:08.177Z,1005.19
2022-11-01T05:20:08.202Z,1005.20
2022-11-01T05:21:08.226Z,1005.21
2022-11-01T05:22:08.248Z,1005.27
2022-11-01T05:23:08.278Z,1005.28
2022-11-01T05:24:08.302Z,1005.30
2022-11-01T05:25:08.323Z,1005.31
2022-11-01T05:26:08.356Z,1005.27
2022-11-01T05:27:08.374Z,1005.28
2022-11-01T05:28:08.410Z,1005.30
2022-11-01T05:29:13.331Z,1005.33
2022-11-01T05:30:08.450Z,1005.32
2022-11-01T05:31:08.478Z,1005.35
2022-11-01T05:32:08.501Z,1005.36
2022-11-01T05:33:08.524Z,1005.31
2022-11-01T05:34:08.554Z,1005.36
2022-11-01T05:35:08.574Z,1005.42
2022-11-01T05:36:08.599Z,1005.42
2022-11-01T05:37:08.625Z,1005.44
2022-11-01T05:38:08.649Z,1005.42
2022-11-01T05:39:08.682Z,1005.38
2022-11-01T05:40:08.706Z,1005.40
2022-11-01T05:41:08.797Z,1005.45
2022-11-01T05:42:08.753Z,1005.42
2022-11-01T05:43:08.780Z,1005.46
2022-11-01T05:44:08.850Z,1005.46
2022-11-01T05:45:08.829Z,1005.45
2022-11-01T05:46:08.856Z,1005.44
2022-11-01T05:47:10.358Z,1005.49
2022-11-01T05:48:08.906Z,1005.46
2022-11-01T05:49:08.933Z,1005.45
2022-11-01T05:50:08.954Z,1005.51
2022-11-01T05:51:08.982Z,1005.54
2022-11-01T05:52:09.006Z,1005.56
2022-11-01T05:53:09.032Z,1005.56
2022-11-01T05:54:09.061Z,1005.53
2022-11-01T05:55:09.087Z,1005.55
2022-11-01T05:56:09.109Z,1005.58
2022-11-01T05:57:09.134Z,1005.61
2022-11-01T05:58:09.168Z,1005.65
2022-11-01T05:59:09.186Z,1005.68
2022-11-01T06:00:09.211Z,1005.70
2022-11-01T06:01:09.309Z,1005.69
2022-11-01T06:02:09.322Z,1005.70
2022-11-01T06:03:09.284Z,1005.72
2022-11-01T06:04:09.311Z,1005.68
2022-11-01T06:05:09.341Z,1005.68
2022-11-01T06:06:09.389Z,1005.71
2022-11-01T06:07:09.391Z,1005.68
2022-11-01T06:08:09.414Z,1005.69
2022-11-01T06:09:09.443Z,1005.72
2022-11-01T06:10:09.466Z,1005.72
2022-11-01T06:11:09.490Z,1005.71
2022-11-01T06:12:09.522Z,1005.72
2022-11-01T06:13:16.711Z,1005.74
2022-11-01T06:15:14.055Z,1005.82
2022-11-01T06:16:13.577Z,1005.79
2022-11-01T06:18:17.605Z,1005.84
2022-11-01T06:19:17.622Z,1005.84
2022-11-01T06:21:26.090Z,1005.89
2022-11-01T06:22:21.663Z,1005.90
2022-11-01T06:24:25.678Z,1005.93
2022-11-01T06:25:25.691Z,1005.96
2022-11-01T06:27:30.190Z,1005.92
2022-11-01T06:28:29.743Z,1005.93
2022-11-01T06:30:33.756Z,1005.94
2022-11-01T06:31:33.768Z,1005.97
2022-11-01T06:33:27.249Z,1006.02
2022-11-01T06:34:26.732Z,1005.98
2022-11-01T06:36:19.876Z,1006.05
2022-11-01T06:37:19.889Z,1006.06
2022-11-01T06:39:24.381Z,1006.10
2022-11-01T06:40:23.925Z,1006.06
2022-11-01T06:42:27.950Z,1006.07
2022-11-01T06:43:27.967Z,1006.08
2022-11-01T06:45:32.465Z,1006.13
2022-11-01T06:46:32.003Z,1006.08
2022-11-01T06:48:25.147Z,1006.18
2022-11-01T06:49:25.162Z,1006.21
2022-11-01T06:51:29.658Z,1006.32
2022-11-01T06:52:29.202Z,1006.35
2022-11-01T06:54:33.225Z,1006.37
2022-11-01T06:55:33.240Z,1006.40
2022-11-01T06:57:37.752Z,1006.40
2022-11-01T06:58:37.290Z,1006.51
2022-11-01T07:00:41.417Z,1006.52
2022-11-01T07:01:41.541Z,1006.47
2022-11-01T07:03:34.807Z,1006.56
2022-11-01T07:04:34.305Z,1006.55
2022-11-01T07:06:38.318Z,1006.69
2022-11-01T07:07:38.326Z,1006.79
2022-11-01T07:09:42.823Z,1006.79
2022-11-01T07:10:42.367Z,1006.76
2022-11-01T07:12:46.380Z,1006.78
2022-11-01T07:13:46.398Z,1006.78
2022-11-01T07:15:50.902Z,1006.79
2022-11-01T07:16:50.439Z,1006.83
2022-11-01T07:18:54.463Z,1006.87
2022-11-01T07:19:54.475Z,1006.87
2022-11-01T07:21:58.971Z,1006.91
2022-11-01T07:22:58.535Z,1006.94
2022-11-01T07:25:02.532Z,1006.98
2022-11-01T07:26:02.553Z,1007.02
2022-11-01T07:28:07.046Z,1007.06
2022-11-01T07:29:06.589Z,1007.07
2022-11-01T07:31:10.609Z,1007.07
2022-11-01T07:32:10.621Z,1007.13
2022-11-01T07:34:15.618Z,1007.11
2022-11-01T07:35:14.661Z,1007.11
2022-11-01T07:37:18.797Z,1007.09
2022-11-01T07:38:19.093Z,1007.07
2022-11-01T07:40:23.198Z,1007.18
2022-11-01T07:41:22.745Z,1007.19
2022-11-01T07:43:15.682Z,1007.20
2022-11-01T07:44:15.697Z,1007.28
2022-11-01T07:46:20.197Z,1007.29
2022-11-01T07:47:19.738Z,1007.18
2022-11-01T07:49:23.803Z,1007.25
2022-11-01T07:50:23.771Z,1007.29
2022-11-01T07:52:28.273Z,1007.30
2022-11-01T07:53:27.807Z,1007.35
2022-11-01T07:55:31.835Z,1007.33
2022-11-01T07:56:31.844Z,1007.37
2022-11-01T07:58:36.344Z,1007.39
2022-11-01T07:59:35.878Z,1007.48
2022-11-01T08:01:40.026Z,1007.41
2022-11-01T08:02:39.965Z,1007.54
2022-11-01T08:04:44.420Z,1007.61
2022-11-01T08:05:43.975Z,1007.56
2022-11-01T08:07:47.977Z,1007.67
2022-11-01T08:08:48.000Z,1007.70
2022-11-01T08:10:52.487Z,1007.70
2022-11-01T08:11:52.031Z,1007.75
2022-11-01T08:14:00.897Z,1007.77
2022-11-01T08:14:56.082Z,1007.74
2022-11-01T08:17:00.675Z,1007.86
2022-11-01T08:18:00.495Z,1007.87
2022-11-01T08:20:04.139Z,1007.96
2022-11-01T08:21:04.154Z,1008.00
2022-11-01T08:22:57.637Z,1008.06
2022-11-01T08:23:57.112Z,1008.04
2022-11-01T08:26:01.133Z,1008.06
2022-11-01T08:27:01.153Z,1008.20
2022-11-01T08:28:55.129Z,1008.15
2022-11-01T08:29:54.800Z,1008.04
2022-11-01T08:30:54.824Z,1008.16
2022-11-01T08:31:54.845Z,1008.20
2022-11-01T08:32:54.877Z,1008.25
2022-11-01T08:33:54.906Z,1008.27
2022-11-01T08:34:54.926Z,1008.33
2022-11-01T08:35:54.954Z,1008.33
2022-11-01T08:36:54.978Z,1008.40
2022-11-01T08:37:55.003Z,1008.44
2022-11-01T08:38:55.063Z,1008.43
2022-11-01T08:39:55.055Z,1008.48
2022-11-01T08:40:55.082Z,1008.48
2022-11-01T08:41:55.106Z,1008.48
2022-11-01T08:42:55.133Z,1008.50
2022-11-01T08:43:55.155Z,1008.54
2022-11-01T08:44:55.183Z,1008.54
2022-11-01T08:45:55.209Z,1008.58
2022-11-01T08:46:55.233Z,1008.59
2022-11-01T08:47:55.259Z,1008.67
2022-11-01T08:48:55.291Z,1008.63
2022-11-01T08:49:55.313Z,1008.61
2022-11-01T08:50:55.338Z,1008.64
2022-11-01T08:51:55.363Z,1008.63
2022-11-01T08:52:55.389Z,1008.63
2022-11-01T08:53:55.417Z,1008.67
2022-11-01T08:54:55.442Z,1008.68
2022-11-01T08:55:55.469Z,1008.72
2022-11-01T08:56:55.492Z,1008.61
2022-11-01T08:57:55.518Z,1008.67
2022-11-01T08:58:55.547Z,1008.67
2022-11-01T08:59:55.571Z,1008.64
2022-11-01T09:00:55.653Z,1008.67
2022-11-01T09:01:55.747Z,1008.66
2022-11-01T09:02:55.645Z,1008.63
2022-11-01T09:03:55.672Z,1008.74
2022-11-01T09:04:55.701Z,1008.74
2022-11-01T09:05:55.724Z,1008.73
2022-11-01T09:06:55.750Z,1008.73
2022-11-01T09:07:55.776Z,1008.75
2022-11-01T09:08:55.805Z,1008.77
2022-11-01T09:09:55.833Z,1008.78
2022-11-01T09:10:55.852Z,1008.84
2022-11-01T09:11:55.877Z,1008.83
2022-11-01T09:12:55.904Z,1008.85
2022-11-01T09:13:55.929Z,1008.93
2022-11-01T09:14:55.957Z,1008.89
2022-11-01T09:15:59.959Z,1008.94
2022-11-01T09:16:56.009Z,1008.97
2022-11-01T09:17:56.029Z,1008.95
2022-11-01T09:18:56.057Z,1008.95
2022-11-01T09:19:56.081Z,1009.06
2022-11-01T09:20:56.111Z,1009.03
2022-11-01T09:21:56.133Z,1009.03
2022-11-01T09:22:56.172Z,1009.05
2022-11-01T09:23:56.181Z,1009.06
2022-11-01T09:24:56.212Z,1009.14
2022-11-01T09:25:56.241Z,1009.16
2022-11-01T09:26:56.260Z,1009.18
2022-11-01T09:27:56.288Z,1009.12
2022-11-01T09:28:56.314Z,1009.16
2022-11-01T09:29:56.340Z,1009.21
2022-11-01T09:31:08.081Z,1009.23
2022-11-01T09:31:56.392Z,1009.20
2022-11-01T09:32:56.415Z,1009.20
2022-11-01T09:33:56.446Z,1009.23
2022-11-01T09:34:56.472Z,1009.33
2022-11-01T09:35:59.549Z,1009.31
2022-11-01T09:36:56.521Z,1009.32
2022-11-01T09:37:56.547Z,1009.30
2022-11-01T09:38:56.568Z,1009.28
2022-11-01T09:39:56.597Z,1009.32
2022-11-01T09:40:56.625Z,1009.32
2022-11-01T09:41:56.665Z,1009.28
2022-11-01T09:43:01.353Z,1009.35
2022-11-01T09:43:56.701Z,1009.33
2022-11-01T09:44:56.729Z,1009.38
2022-11-01T09:45:56.754Z,1009.39
2022-11-01T09:46:59.669Z,1009.39
2022-11-01T09:47:56.805Z,1009.43
2022-11-01T09:48:56.832Z,1009.36
2022-11-01T09:49:56.856Z,1009.40
2022-11-01T09:50:56.894Z,1009.42
2022-11-01T09:51:56.905Z,1009.41
2022-11-01T09:52:56.934Z,1009.41
2022-11-01T09:53:56.957Z,1009.40
2022-11-01T09:54:56.983Z,1009.40
2022-11-01T09:55:57.016Z,1009.43
2022-11-01T09:56:57.035Z,1009.46
2022-11-01T09:57:57.063Z,1009.40
2022-11-01T09:58:57.087Z,1009.37
2022-11-01T09:59:57.111Z,1009.34
2022-11-01T10:00:57.181Z,1009.39
2022-11-01T10:01:57.223Z,1009.42
2022-11-01T10:02:57.220Z,1009.40
2022-11-01T10:03:57.218Z,1009.40
2022-11-01T10:04:57.246Z,1009.40
2022-11-01T10:05:57.268Z,1009.41
2022-11-01T10:06:57.299Z,1009.34
2022-11-01T10:07:57.323Z,1009.45
2022-11-01T10:08:57.355Z,1009.54
2022-11-01T10:09:57.370Z,1009.44
2022-11-01T10:10:57.396Z,1009.42
2022-11-01T10:11:57.419Z,1009.50
2022-11-01T10:12:57.447Z,1009.45
2022-11-01T10:13:57.474Z,1009.45
2022-11-01T10:14:57.499Z,1009.51
2022-11-01T10:15:57.525Z,1009.58
2022-11-01T10:16:57.561Z,1009.49
2022-11-01T10:17:57.581Z,1009.50
2022-11-01T10:18:57.601Z,1009.53
2022-11-01T10:19:57.685Z,1009.58
2022-11-01T10:20:57.654Z,1009.60
2022-11-01T10:21:57.679Z,1009.59
2022-11-01T10:22:57.708Z,1009.63
2022-11-01T10:23:57.955Z,1009.67
2022-11-01T10:24:57.757Z,1009.67
2022-11-01T10:25:57.783Z,1009.63
2022-11-01T10:26:57.806Z,1009.66
2022-11-01T10:27:57.835Z,1009.65
2022-11-01T10:28:57.861Z,1009.71
2022-11-01T10:29:57.885Z,1009.69
2022-11-01T10:30:57.910Z,1009.70
2022-11-01T10:31:57.939Z,1009.70
2022-11-01T10:32:57.965Z,1009.77
2022-11-01T10:33:57.993Z,1009.78
2022-11-01T10:34:58.015Z,1009.81
2022-11-01T10:35:58.042Z,1009.76
2022-11-01T10:36:58.066Z,1009.78
2022-11-01T10:38:11.369Z,1009.82
2022-11-01T10:40:02.573Z,1009.87
2022-11-01T10:40:58.182Z,1009.84
2022-11-01T10:41:58.200Z,1009.88
2022-11-01T10:42:58.220Z,1009.94
2022-11-01T10:43:58.249Z,1009.89
2022-11-01T10:44:58.275Z,1009.91
2022-11-01T10:45:58.301Z,1009.95
2022-11-01T10:46:58.327Z,1009.96
2022-11-01T10:47:58.350Z,1009.90
2022-11-01T10:48:58.378Z,1009.92
2022-11-01T10:50:07.291Z,1010.01
2022-11-01T10:50:58.429Z,1009.97
2022-11-01T10:51:58.456Z,1009.98
2022-11-01T10:52:58.480Z,1010.01
2022-11-01T10:53:58.508Z,1009.99
2022-11-01T10:54:58.535Z,1010.01
2022-11-01T10:55:58.560Z,1009.95
2022-11-01T10:56:58.585Z,1009.97
2022-11-01T10:57:58.609Z,1009.96
2022-11-01T10:58:58.637Z,1009.97
2022-11-01T10:59:58.669Z,1009.97
2022-11-01T11:00:58.785Z,1009.99
2022-11-01T11:01:58.838Z,1009.98
2022-11-01T11:02:58.763Z,1009.90
2022-11-01T11:03:58.767Z,1009.93
2022-11-01T11:04:58.795Z,1009.89
2022-11-01T11:05:58.830Z,1009.99
2022-11-01T11:06:58.846Z,1009.95
2022-11-01T11:07:58.873Z,1009.94
2022-11-01T11:08:58.899Z,1009.92
2022-11-01T11:09:58.983Z,1009.90
2022-11-01T11:10:58.949Z,1009.93
2022-11-01T11:11:58.977Z,1009.96
2022-11-01T11:12:59.282Z,1009.96
2022-11-01T11:13:59.031Z,1009.97
2022-11-01T11:14:59.062Z,1009.93
2022-11-01T11:15:59.080Z,1009.92
2022-11-01T11:16:59.105Z,1009.95
2022-11-01T11:17:59.133Z,1009.96
2022-11-01T11:18:59.168Z,1009.95
2022-11-01T11:19:59.183Z,1010.01
2022-11-01T11:20:59.212Z,1009.98
2022-11-01T11:21:59.249Z,1010.01
2022-11-01T11:22:59.267Z,1010.01
2022-11-01T11:23:59.299Z,1009.99
2022-11-01T11:24:59.314Z,1010.00
2022-11-01T11:25:59.344Z,1009.99
2022-11-01T11:26:59.366Z,1009.97
2022-11-01T11:27:59.791Z,1010.00
2022-11-01T11:28:59.422Z,1010.03
2022-11-01T11:29:59.445Z,1010.03
2022-11-01T11:30:59.480Z,1010.01
2022-11-01T11:31:59.527Z,1010.04
2022-11-01T11:32:59.525Z,1010.05
2022-11-01T11:33:59.548Z,1009.93
2022-11-01T11:34:59.577Z,1010.00
2022-11-01T11:35:59.601Z,1009.98
2022-11-01T11:36:59.628Z,1009.95
2022-11-01T11:37:59.985Z,1009.95
2022-11-01T11:38:59.680Z,1009.95
2022-11-01T11:39:59.708Z,1009.99
2022-11-01T11:40:59.731Z,1009.92
2022-11-01T11:41:59.759Z,1009.97
2022-11-01T11:42:59.854Z,1009.97
2022-11-01T11:43:59.812Z,1009.97
2022-11-01T11:44:59.837Z,1010.00
2022-11-01T11:45:59.863Z,1009.95
2022-11-01T11:46:59.888Z,1009.96
2022-11-01T11:48:00.268Z,1009.94
2022-11-01T11:48:59.942Z,1009.97
2022-11-01T11:49:59.971Z,1009.98
2022-11-01T11:50:59.993Z,1009.98
2022-11-01T11:52:00.034Z,1009.95
2022-11-01T11:53:00.047Z,1010.01
2022-11-01T11:54:00.076Z,1009.97
2022-11-01T11:55:00.114Z,1009.91
2022-11-01T11:56:00.126Z,1009.97
2022-11-01T11:57:00.154Z,1010.00
2022-11-01T11:58:00.740Z,1009.98
2022-11-01T11:59:03.472Z,1010.05
2022-11-01T12:00:00.345Z,1009.99
2022-11-01T12:01:00.258Z,1010.00
2022-11-01T12:02:00.565Z,1010.00
2022-11-01T12:03:00.747Z,1009.94
2022-11-01T12:04:00.337Z,1009.96
2022-11-01T12:05:00.364Z,1010.00
2022-11-01T12:06:00.389Z,1009.97
2022-11-01T12:07:00.420Z,1009.99
2022-11-01T12:08:00.445Z,1010.02
2022-11-01T12:09:00.466Z,1010.03
2022-11-01T12:10:00.493Z,1010.01
2022-11-01T12:11:00.520Z,1010.03
2022-11-01T12:12:00.549Z,1010.06
2022-11-01T12:13:00.998Z,1010.08
2022-11-01T12:14:00.594Z,1010.03
2022-11-01T12:15:00.628Z,1010.09
2022-11-01T12:16:00.649Z,1010.09
2022-11-01T12:17:00.679Z,1010.07
2022-11-01T12:18:00.962Z,1010.11
2022-11-01T12:19:00.731Z,1010.11
2022-11-01T12:20:00.757Z,1010.12
2022-11-01T12:21:00.780Z,1010.12
2022-11-01T12:22:00.806Z,1010.09
2022-11-01T12:23:00.840Z,1010.07
2022-11-01T12:24:00.865Z,1010.08
2022-11-01T12:25:00.892Z,1010.06
2022-11-01T12:26:00.913Z,1010.05
2022-11-01T12:27:00.942Z,1010.09
2022-11-01T12:28:01.595Z,1010.09
2022-11-01T12:29:00.995Z,1010.14
2022-11-01T12:30:01.022Z,1010.14
2022-11-01T12:31:01.050Z,1010.11
2022-11-01T12:32:01.074Z,1010.06
2022-11-01T12:33:01.205Z,1010.07
2022-11-01T12:34:01.132Z,1010.10
2022-11-01T12:35:01.153Z,1010.08
2022-11-01T12:36:01.177Z,1010.09
2022-11-01T12:37:01.210Z,1010.12
2022-11-01T12:38:01.720Z,1010.07
2022-11-01T12:39:01.258Z,1010.14
2022-11-01T12:40:01.290Z,1010.14
2022-11-01T12:41:01.306Z,1010.18
2022-11-01T12:42:01.338Z,1010.12
2022-11-01T12:43:01.360Z,1010.15
2022-11-01T12:44:01.387Z,1010.20
2022-11-01T12:45:01.412Z,1010.18
2022-11-01T12:46:01.447Z,1010.24
2022-11-01T12:47:01.469Z,1010.23
2022-11-01T12:48:01.906Z,1010.19
2022-11-01T12:49:01.522Z,1010.21
2022-11-01T12:50:01.552Z,1010.25
2022-11-01T12:51:01.571Z,1010.25
2022-11-01T12:52:01.652Z,1010.26
2022-11-01T12:53:01.867Z,1010.29
2022-11-01T12:54:01.654Z,1010.24
2022-11-01T12:55:01.684Z,1010.28
2022-11-01T12:56:01.713Z,1010.26
2022-11-01T12:57:01.742Z,1010.25
2022-11-01T12:58:01.762Z,1010.23
2022-11-01T12:59:01.790Z,1010.23
2022-11-01T13:00:09.566Z,1010.30
2022-11-01T13:02:06.443Z,1010.33
2022-11-01T13:03:05.945Z,1010.23
2022-11-01T13:05:09.871Z,1010.28
2022-11-01T13:06:09.889Z,1010.28
2022-11-01T13:08:14.378Z,1010.28
2022-11-01T13:09:13.980Z,1010.28
2022-11-01T13:11:17.997Z,1010.26
2022-11-01T13:12:18.016Z,1010.17
2022-11-01T13:14:11.498Z,1010.33
2022-11-01T13:15:11.173Z,1010.35
2022-11-01T13:17:15.209Z,1010.34
2022-11-01T13:18:15.210Z,1010.33
2022-11-01T13:20:19.710Z,1010.37
2022-11-01T13:21:19.242Z,1010.30
2022-11-01T13:23:12.187Z,1010.39
2022-11-01T13:24:12.204Z,1010.41
2022-11-01T13:26:16.705Z,1010.37
2022-11-01T13:27:16.242Z,1010.36
2022-11-01T13:29:20.268Z,1010.34
2022-11-01T13:30:20.283Z,1010.36
2022-11-01T13:32:24.784Z,1010.35
2022-11-01T13:33:24.322Z,1010.35
2022-11-01T13:35:28.339Z,1010.42
2022-11-01T13:36:30.331Z,1010.38
2022-11-01T13:38:32.876Z,1010.40
2022-11-01T13:39:32.395Z,1010.37
2022-11-01T13:41:36.413Z,1010.33
2022-11-01T13:42:36.438Z,1010.31
2022-11-01T13:44:40.930Z,1010.33
2022-11-01T13:45:40.468Z,1010.30
2022-11-01T13:48:44.504Z,1010.23
2022-11-01T13:50:49.008Z,1010.30
2022-11-01T13:51:48.559Z,1010.30
2022-11-01T13:53:41.490Z,1010.33
2022-11-01T13:54:41.501Z,1010.34
2022-11-01T13:56:46.004Z,1010.26
2022-11-01T13:57:45.547Z,1010.29
2022-11-01T13:59:49.579Z,1010.31
2022-11-01T14:00:49.645Z,1010.29
2022-11-01T14:02:43.135Z,1010.27
2022-11-01T14:03:47.350Z,1010.27
2022-11-01T14:05:46.577Z,1010.26
2022-11-01T14:06:46.595Z,1010.28
2022-11-01T14:08:51.095Z,1010.28
2022-11-01T14:09:50.624Z,1010.28
2022-11-01T14:11:54.643Z,1010.33
2022-11-01T14:12:54.664Z,1010.33
2022-11-01T14:14:59.158Z,1010.34
2022-11-01T14:15:58.698Z,1010.36
2022-11-01T14:18:03.055Z,1010.38
2022-11-01T14:19:02.855Z,1010.41